createdAt,value
2024-02-26T00:01:34.576Z,5.70
2024-02-26T00:04:03.445Z,5.63
2024-02-26T00:06:31.275Z,5.43
2024-02-26T00:09:01.839Z,5.63
2024-02-26T00:11:28.704Z,5.93
2024-02-26T00:14:00.069Z,5.70
2024-02-26T00:16:29.331Z,5.40
2024-02-26T00:18:56.707Z,5.50
2024-02-26T00:21:31.117Z,5.10
2024-02-26T00:23:57.871Z,4.80
2024-02-26T00:26:26.857Z,5.13
2024-02-26T00:28:53.607Z,5.60
2024-02-26T00:31:22.466Z,5.10
2024-02-26T00:33:49.332Z,4.90
2024-02-26T00:36:16.287Z,4.80
2024-02-26T00:38:47.378Z,5.63
2024-02-26T00:41:14.110Z,5.67
2024-02-26T00:43:43.733Z,5.93
2024-02-26T00:46:10.557Z,5.30
2024-02-26T00:48:38.245Z,6.13
2024-02-26T00:51:06.499Z,7.00
2024-02-26T00:53:35.747Z,5.93
2024-02-26T00:56:02.637Z,6.20
2024-02-26T00:58:29.429Z,6.00
2024-02-26T01:00:58.432Z,6.87
2024-02-26T01:03:25.336Z,6.70
2024-02-26T01:05:54.105Z,6.88
2024-02-26T01:08:22.732Z,7.20
2024-02-26T01:10:49.489Z,6.03
2024-02-26T01:13:16.207Z,5.63
2024-02-26T01:15:44.901Z,6.40
2024-02-26T01:18:13.123Z,6.50
2024-02-26T01:20:40.040Z,6.00
2024-02-26T01:23:07.842Z,5.80
2024-02-26T01:25:37.676Z,6.33
2024-02-26T01:28:04.642Z,5.80
2024-02-26T01:30:33.976Z,6.00
2024-02-26T01:33:01.321Z,5.93
2024-02-26T01:35:28.220Z,6.17
2024-02-26T01:37:58.528Z,6.23
2024-02-26T01:40:28.127Z,5.40
2024-02-26T01:42:57.144Z,5.30
2024-02-26T01:45:26.074Z,5.43
2024-02-26T01:47:53.941Z,5.13
2024-02-26T01:50:25.209Z,5.60
2024-02-26T01:52:53.630Z,5.50
2024-02-26T01:55:21.466Z,5.10
2024-02-26T01:57:52.975Z,5.07
2024-02-26T02:00:23.224Z,5.10
2024-02-26T02:02:51.743Z,5.80
2024-02-26T02:05:19.152Z,4.90
2024-02-26T02:07:50.066Z,4.80
2024-02-26T02:10:23.832Z,4.63
2024-02-26T02:12:50.835Z,4.90
2024-02-26T02:15:17.936Z,4.90
2024-02-26T02:17:47.470Z,5.07
2024-02-26T02:20:19.171Z,4.80
2024-02-26T02:22:47.379Z,4.70
2024-02-26T02:25:14.728Z,4.90
2024-02-26T02:27:45.025Z,4.90
2024-02-26T02:30:14.920Z,4.77
2024-02-26T02:32:43.020Z,5.00
2024-02-26T02:35:10.276Z,4.17
2024-02-26T02:37:38.263Z,4.70
2024-02-26T02:40:06.273Z,5.13
2024-02-26T02:42:32.998Z,4.83
2024-02-26T02:44:59.754Z,4.17
2024-02-26T02:47:28.699Z,4.57
2024-02-26T02:49:57.803Z,3.63
2024-02-26T02:52:24.536Z,3.60
2024-02-26T02:54:51.417Z,3.80
2024-02-26T02:57:20.918Z,4.47
2024-02-26T02:59:47.702Z,3.83
2024-02-26T03:02:14.555Z,4.07
2024-02-26T03:04:45.894Z,4.10
2024-02-26T03:07:12.759Z,3.70
2024-02-26T03:09:39.519Z,3.70
2024-02-26T03:12:06.434Z,3.83
2024-02-26T03:14:35.664Z,4.00
2024-02-26T03:17:02.470Z,3.37
2024-02-26T03:19:29.377Z,3.97
2024-02-26T03:21:56.130Z,3.40
2024-02-26T03:24:23.378Z,3.80
2024-02-26T03:26:50.736Z,3.63
2024-02-26T03:29:17.553Z,2.93
2024-02-26T03:31:48.840Z,3.67
2024-02-26T03:34:19.903Z,3.60
2024-02-26T03:36:46.958Z,3.03
2024-02-26T03:39:13.847Z,3.40
2024-02-26T03:41:43.451Z,3.70
2024-02-26T03:44:10.914Z,3.20
2024-02-26T03:46:37.752Z,3.20
2024-02-26T03:49:04.965Z,3.10
2024-02-26T03:51:32.746Z,3.00
2024-02-26T03:53:59.819Z,4.03
2024-02-26T03:56:30.182Z,3.10
2024-02-26T03:58:57.085Z,2.87
2024-02-26T04:01:23.836Z,3.10
2024-02-26T04:03:51.269Z,3.23
2024-02-26T04:06:23.723Z,3.07
2024-02-26T04:08:53.000Z,3.20
2024-02-26T04:11:20.425Z,3.03
2024-02-26T04:13:52.162Z,2.97
2024-02-26T04:16:21.588Z,3.20
2024-02-26T04:18:51.408Z,3.23
2024-02-26T04:21:18.236Z,2.80
2024-02-26T04:23:45.002Z,2.90
2024-02-26T04:26:11.754Z,3.58
2024-02-26T04:28:40.669Z,3.50
2024-02-26T04:31:07.389Z,3.17
2024-02-26T04:33:36.137Z,3.30
2024-02-26T04:36:04.439Z,3.00
2024-02-26T04:38:31.647Z,3.60
2024-02-26T04:40:58.391Z,3.20
2024-02-26T04:43:25.057Z,3.33
2024-02-26T04:45:51.788Z,3.43
2024-02-26T04:48:18.632Z,3.67
2024-02-26T04:50:48.368Z,3.37
2024-02-26T04:53:15.110Z,3.50
2024-02-26T04:55:44.297Z,3.40
2024-02-26T04:58:13.456Z,3.53
2024-02-26T05:00:40.216Z,3.40
2024-02-26T05:03:07.180Z,3.37
2024-02-26T05:05:34.293Z,3.53
2024-02-26T05:08:01.044Z,3.30
2024-02-26T05:10:32.658Z,3.03
2024-02-26T05:12:59.480Z,2.77
2024-02-26T05:15:26.225Z,3.13
2024-02-26T05:17:53.979Z,2.73
2024-02-26T05:20:21.457Z,2.97
2024-02-26T05:22:49.074Z,3.13
2024-02-26T05:25:18.765Z,3.30
2024-02-26T05:27:45.644Z,3.13
2024-02-26T05:30:13.086Z,3.30
2024-02-26T05:32:39.892Z,3.23
2024-02-26T05:35:09.717Z,3.03
2024-02-26T05:37:41.257Z,3.40
2024-02-26T05:40:10.842Z,2.87
2024-02-26T05:42:37.601Z,3.00
2024-02-26T05:45:07.514Z,3.08
2024-02-26T05:47:37.303Z,3.30
2024-02-26T05:50:06.718Z,3.23
2024-02-26T05:52:33.989Z,3.30
2024-02-26T05:55:00.846Z,3.10
2024-02-26T05:57:27.618Z,3.13
2024-02-26T05:59:54.300Z,2.97
2024-02-26T06:02:23.261Z,2.80
2024-02-26T06:04:52.450Z,3.10
2024-02-26T06:07:19.308Z,2.97
2024-02-26T06:09:46.040Z,3.40
2024-02-26T06:12:12.869Z,3.30
2024-02-26T06:14:41.848Z,2.97
2024-02-26T06:17:08.623Z,3.20
2024-02-26T06:19:37.976Z,2.83
2024-02-26T06:22:04.995Z,3.30
2024-02-26T06:24:34.405Z,4.90
2024-02-26T06:27:01.249Z,5.37
2024-02-26T06:29:28.123Z,3.87
2024-02-26T06:31:55.300Z,3.87
2024-02-26T06:34:22.134Z,4.27
2024-02-26T06:36:48.943Z,3.93
2024-02-26T06:39:20.959Z,3.90
2024-02-26T06:41:48.070Z,4.20
2024-02-26T06:44:15.490Z,4.37
2024-02-26T06:46:42.185Z,4.23
2024-02-26T06:49:09.053Z,3.80
2024-02-26T06:51:38.125Z,3.97
2024-02-26T06:54:04.945Z,4.00
2024-02-26T06:56:34.141Z,3.90
2024-02-26T06:59:03.370Z,3.83
2024-02-26T07:01:32.787Z,3.43
2024-02-26T07:03:59.568Z,3.60
2024-02-26T07:06:26.373Z,3.60
2024-02-26T07:08:53.583Z,4.13
2024-02-26T07:11:21.052Z,3.57
2024-02-26T07:13:48.063Z,4.53
2024-02-26T07:16:17.245Z,4.40
2024-02-26T07:18:46.895Z,3.70
2024-02-26T07:21:14.402Z,3.67
2024-02-26T07:23:41.159Z,4.17
2024-02-26T07:26:09.395Z,3.90
2024-02-26T07:28:36.495Z,3.90
2024-02-26T07:31:03.286Z,3.60
2024-02-26T07:33:34.916Z,3.57
2024-02-26T07:36:03.923Z,3.73
2024-02-26T07:38:41.444Z,3.83
2024-02-26T07:41:09.906Z,3.40
2024-02-26T07:43:38.840Z,2.93
2024-02-26T07:46:05.540Z,3.80
2024-02-26T07:48:32.473Z,3.50
2024-02-26T07:51:01.225Z,3.10
2024-02-26T07:53:28.069Z,3.80
2024-02-26T07:55:54.866Z,3.40
2024-02-26T07:58:24.833Z,3.47
2024-02-26T08:00:51.725Z,4.07
2024-02-26T08:03:18.551Z,4.00
2024-02-26T08:05:45.392Z,3.93
2024-02-26T08:08:12.933Z,4.47
2024-02-26T08:10:39.644Z,3.43
2024-02-26T08:13:08.902Z,3.60
2024-02-26T08:15:38.327Z,3.43
2024-02-26T08:18:08.057Z,3.60
2024-02-26T08:20:38.343Z,3.20
2024-02-26T08:23:07.642Z,4.03
2024-02-26T08:25:34.336Z,4.03
2024-02-26T08:28:06.608Z,4.07
2024-02-26T08:30:33.524Z,3.80
2024-02-26T08:33:00.360Z,4.37
2024-02-26T08:35:27.607Z,3.90
2024-02-26T08:37:54.743Z,4.07
2024-02-26T08:40:23.622Z,3.90
2024-02-26T08:42:50.966Z,3.70
2024-02-26T08:45:17.766Z,4.07
2024-02-26T08:47:51.017Z,4.47
2024-02-26T08:50:20.204Z,4.20
2024-02-26T08:52:51.493Z,4.57
2024-02-26T08:55:20.519Z,4.37
2024-02-26T08:57:50.792Z,4.03
2024-02-26T09:00:18.979Z,4.40
2024-02-26T09:02:47.995Z,4.72
2024-02-26T09:05:15.297Z,4.37
2024-02-26T09:07:42.038Z,4.13
2024-02-26T09:10:11.551Z,4.13
2024-02-26T09:12:41.446Z,4.03
2024-02-26T09:15:08.982Z,4.47
2024-02-26T09:17:38.317Z,4.40
2024-02-26T09:20:12.711Z,3.80
2024-02-26T09:22:43.596Z,4.20
2024-02-26T09:25:10.322Z,4.35
2024-02-26T09:27:39.293Z,4.03
2024-02-26T09:30:11.594Z,4.40
2024-02-26T09:32:38.558Z,3.80
2024-02-26T09:35:06.329Z,4.10
2024-02-26T09:37:34.536Z,3.83
2024-02-26T09:40:01.582Z,4.13
2024-02-26T09:42:28.941Z,4.00
2024-02-26T09:44:56.861Z,4.07
2024-02-26T09:47:28.402Z,3.97
2024-02-26T09:49:57.454Z,4.07
2024-02-26T09:52:26.713Z,4.15
2024-02-26T09:54:56.097Z,4.43
2024-02-26T09:57:26.240Z,4.23
2024-02-26T09:59:54.962Z,4.63
2024-02-26T10:02:25.259Z,3.80
2024-02-26T10:04:54.873Z,4.30
2024-02-26T10:07:24.796Z,3.93
2024-02-26T10:09:57.153Z,3.90
2024-02-26T10:12:28.543Z,3.90
2024-02-26T10:14:55.376Z,3.90
2024-02-26T10:17:22.845Z,3.97
2024-02-26T10:19:53.163Z,4.67
2024-02-26T10:22:23.634Z,4.17
2024-02-26T10:24:50.347Z,4.07
2024-02-26T10:27:17.572Z,3.60
2024-02-26T10:29:48.317Z,3.90
2024-02-26T10:32:15.331Z,4.30
2024-02-26T10:34:42.917Z,4.23
2024-02-26T10:37:10.879Z,3.80
2024-02-26T10:39:39.170Z,3.83
2024-02-26T10:42:10.932Z,3.30
2024-02-26T10:44:40.960Z,3.03
2024-02-26T10:47:08.875Z,3.27
2024-02-26T10:49:36.943Z,3.37
2024-02-26T10:52:08.457Z,3.20
2024-02-26T10:54:41.256Z,2.90
2024-02-26T10:57:11.949Z,3.10
2024-02-26T10:59:40.471Z,2.70
2024-02-26T11:02:11.001Z,2.47
2024-02-26T11:04:39.649Z,2.60
2024-02-26T11:07:11.318Z,2.63
2024-02-26T11:09:43.331Z,2.60
2024-02-26T11:12:14.670Z,2.50
2024-02-26T11:14:43.927Z,2.37
2024-02-26T11:17:17.699Z,2.30
2024-02-26T11:19:48.536Z,2.53
2024-02-26T11:22:21.241Z,2.17
2024-02-26T11:24:55.425Z,1.90
2024-02-26T11:27:31.253Z,2.13
2024-02-26T11:30:01.024Z,1.93
2024-02-26T11:32:31.551Z,1.90
2024-02-26T11:34:59.940Z,1.70
2024-02-26T11:37:27.100Z,1.80
2024-02-26T11:39:56.672Z,1.77
2024-02-26T11:42:30.971Z,1.70
2024-02-26T11:45:01.497Z,1.83
2024-02-26T11:47:29.066Z,1.70
2024-02-26T11:49:55.945Z,1.60
2024-02-26T11:52:25.337Z,1.63
2024-02-26T11:54:58.023Z,1.70
2024-02-26T11:57:33.950Z,1.47
2024-02-26T12:00:24.665Z,1.27
2024-02-26T12:02:59.045Z,1.40
2024-02-26T12:05:31.212Z,1.70
2024-02-26T12:08:09.043Z,1.57
2024-02-26T12:10:45.357Z,1.65
2024-02-26T12:13:20.142Z,1.40
2024-02-26T12:15:59.759Z,1.40
2024-02-26T12:18:31.474Z,1.30
2024-02-26T12:21:05.020Z,0.90
2024-02-26T12:23:32.103Z,1.50
2024-02-26T12:26:07.708Z,1.30
2024-02-26T12:28:38.122Z,1.20
2024-02-26T12:31:05.545Z,1.30
2024-02-26T12:33:35.888Z,1.20
2024-02-26T12:36:02.869Z,1.50
2024-02-26T12:38:32.134Z,1.40
2024-02-26T12:41:03.714Z,1.40
2024-02-26T12:43:31.295Z,1.60
2024-02-26T12:46:03.924Z,1.33
2024-02-26T12:48:30.935Z,1.40
2024-02-26T12:50:58.203Z,1.30
2024-02-26T12:53:24.912Z,1.13
2024-02-26T12:55:55.542Z,1.40
2024-02-26T12:58:25.909Z,1.27
2024-02-26T13:00:53.891Z,1.03
2024-02-26T13:03:21.185Z,1.33
2024-02-26T13:05:51.095Z,1.20
2024-02-26T13:08:27.221Z,1.10
2024-02-26T13:10:56.738Z,1.33
2024-02-26T13:13:29.030Z,1.30
2024-02-26T13:16:09.986Z,1.50
2024-02-26T13:18:39.157Z,0.97
2024-02-26T13:21:18.787Z,0.97
2024-02-26T13:23:50.078Z,1.13
2024-02-26T13:26:22.766Z,1.00
2024-02-26T13:28:59.692Z,0.93
2024-02-26T13:31:26.416Z,1.10
2024-02-26T13:33:56.467Z,0.77
2024-02-26T13:36:27.004Z,0.70
2024-02-26T13:38:56.865Z,0.80
2024-02-26T13:41:24.562Z,0.77
2024-02-26T13:43:51.921Z,0.90
2024-02-26T13:46:18.666Z,0.60
2024-02-26T13:48:50.085Z,0.90
2024-02-26T13:51:19.645Z,0.70
2024-02-26T13:53:48.694Z,0.70
2024-02-26T13:56:17.656Z,0.60
2024-02-26T13:58:46.570Z,0.57
2024-02-26T14:01:13.851Z,0.80
2024-02-26T14:03:41.141Z,0.70
2024-02-26T14:06:08.256Z,0.50
2024-02-26T14:08:35.138Z,0.70
2024-02-26T14:11:02.012Z,0.70
2024-02-26T14:13:28.819Z,0.93
2024-02-26T14:15:57.804Z,0.60
2024-02-26T14:18:25.554Z,0.50
2024-02-26T14:20:52.676Z,0.57
2024-02-26T14:23:21.964Z,0.77
2024-02-26T14:25:49.074Z,0.60
2024-02-26T14:28:22.082Z,0.60
2024-02-26T14:30:52.521Z,0.50
2024-02-26T14:33:19.603Z,0.60
2024-02-26T14:35:46.537Z,0.70
2024-02-26T14:38:18.316Z,0.60
2024-02-26T14:40:45.480Z,0.60
2024-02-26T14:43:12.712Z,0.60
2024-02-26T14:45:39.679Z,0.70
2024-02-26T14:48:07.239Z,0.60
2024-02-26T14:50:34.259Z,0.68
2024-02-26T14:53:03.562Z,0.70
2024-02-26T14:55:30.335Z,0.50
2024-02-26T14:57:57.054Z,0.70
2024-02-26T15:00:23.832Z,0.40
2024-02-26T15:02:55.038Z,0.47
2024-02-26T15:05:25.424Z,0.50
2024-02-26T15:07:52.325Z,0.50
2024-02-26T15:10:19.893Z,0.43
2024-02-26T15:12:46.724Z,0.60
2024-02-26T15:15:16.585Z,0.40
2024-02-26T15:17:43.428Z,0.53
2024-02-26T15:20:12.228Z,0.60
2024-02-26T15:22:39.375Z,0.40
2024-02-26T15:25:06.434Z,0.50
2024-02-26T15:27:33.342Z,0.50
2024-02-26T15:30:02.656Z,0.55
2024-02-26T15:32:32.419Z,0.50
2024-02-26T15:34:59.367Z,0.40
2024-02-26T15:37:30.645Z,0.60
2024-02-26T15:39:57.481Z,0.60
2024-02-26T15:42:24.316Z,0.73
2024-02-26T15:44:51.107Z,0.40
2024-02-26T15:47:18.865Z,0.40
2024-02-26T15:49:48.235Z,0.57
2024-02-26T15:52:15.056Z,0.53
2024-02-26T15:54:41.967Z,0.50
2024-02-26T15:57:10.723Z,0.70
2024-02-26T15:59:37.576Z,0.30
2024-02-26T16:02:06.871Z,0.50
2024-02-26T16:04:34.902Z,0.60
2024-02-26T16:07:10.157Z,0.60
2024-02-26T16:09:37.118Z,0.50
2024-02-26T16:12:11.902Z,0.57
2024-02-26T16:14:38.602Z,0.80
2024-02-26T16:17:19.238Z,0.73
2024-02-26T16:19:46.094Z,0.60
2024-02-26T16:22:15.072Z,0.60
2024-02-26T16:24:44.598Z,0.53
2024-02-26T16:27:11.432Z,0.70
2024-02-26T16:29:38.761Z,0.60
2024-02-26T16:32:05.633Z,0.60
2024-02-26T16:34:35.203Z,0.60
2024-02-26T16:37:12.029Z,0.50
2024-02-26T16:39:39.877Z,0.60
2024-02-26T16:42:12.901Z,0.60
2024-02-26T16:44:42.984Z,0.80
2024-02-26T16:47:09.752Z,0.60
2024-02-26T16:49:39.518Z,0.77
2024-02-26T16:52:08.898Z,0.50
2024-02-26T16:54:35.669Z,0.60
2024-02-26T16:57:05.165Z,0.60
2024-02-26T16:59:34.403Z,0.60
2024-02-26T17:02:03.942Z,0.57
2024-02-26T17:04:31.302Z,1.40
2024-02-26T17:07:00.625Z,1.67
2024-02-26T17:09:27.611Z,1.00
2024-02-26T17:11:57.841Z,0.97
2024-02-26T17:14:27.123Z,1.30
2024-02-26T17:16:53.839Z,1.40
2024-02-26T17:19:20.770Z,1.40
2024-02-26T17:21:48.048Z,1.20
2024-02-26T17:24:19.730Z,1.33
2024-02-26T17:26:47.059Z,0.93
2024-02-26T17:29:16.487Z,0.70
2024-02-26T17:31:43.715Z,1.00
2024-02-26T17:34:13.751Z,1.00
2024-02-26T17:36:40.584Z,0.90
2024-02-26T17:39:07.667Z,1.10
2024-02-26T17:41:34.561Z,1.00
2024-02-26T17:44:01.355Z,1.10
2024-02-26T17:46:29.187Z,0.80
2024-02-26T17:48:56.345Z,1.00
2024-02-26T17:51:25.532Z,1.00
2024-02-26T17:53:52.296Z,0.83
2024-02-26T17:56:21.473Z,1.00
2024-02-26T17:58:48.603Z,0.97
2024-02-26T18:01:15.839Z,0.73
2024-02-26T18:03:43.104Z,0.90
2024-02-26T18:06:10.377Z,1.43
2024-02-26T18:08:37.117Z,0.63
2024-02-26T18:11:04.736Z,0.90
2024-02-26T18:13:31.672Z,0.90
2024-02-26T18:15:58.743Z,1.00
2024-02-26T18:18:26.841Z,1.10
2024-02-26T18:20:53.942Z,0.97
2024-02-26T18:23:21.129Z,0.97
2024-02-26T18:25:47.960Z,0.80
2024-02-26T18:28:15.218Z,1.10
2024-02-26T18:30:45.587Z,1.00
2024-02-26T18:33:14.884Z,0.90
2024-02-26T18:35:43.998Z,0.80
2024-02-26T18:38:15.282Z,1.10
2024-02-26T18:40:44.731Z,0.80
2024-02-26T18:43:12.035Z,1.00
2024-02-26T18:45:39.479Z,0.80
2024-02-26T18:48:08.783Z,1.10
2024-02-26T18:50:35.989Z,1.00
2024-02-26T18:53:03.142Z,1.13
2024-02-26T18:55:29.978Z,0.90
2024-02-26T18:57:56.863Z,0.90
2024-02-26T19:00:24.097Z,1.00
2024-02-26T19:02:51.264Z,0.83
2024-02-26T19:05:18.485Z,1.10
2024-02-26T19:07:45.641Z,1.00
2024-02-26T19:10:17.323Z,1.10
2024-02-26T19:12:45.507Z,1.30
2024-02-26T19:15:13.356Z,0.90
2024-02-26T19:17:42.906Z,1.03
2024-02-26T19:20:12.525Z,1.00
2024-02-26T19:22:43.320Z,1.10
2024-02-26T19:25:13.329Z,1.33
2024-02-26T19:27:42.342Z,1.17
2024-02-26T19:30:12.625Z,1.23
2024-02-26T19:32:39.557Z,1.07
2024-02-26T19:35:06.757Z,1.20
2024-02-26T19:37:35.114Z,1.20
2024-02-26T19:40:01.984Z,1.30
2024-02-26T19:42:29.452Z,1.33
2024-02-26T19:44:57.268Z,1.77
2024-02-26T19:47:24.017Z,1.17
2024-02-26T19:49:51.062Z,1.20
2024-02-26T19:52:20.392Z,1.17
2024-02-26T19:54:47.461Z,1.20
2024-02-26T19:57:14.611Z,1.33
2024-02-26T19:59:41.521Z,1.40
2024-02-26T20:02:08.409Z,1.40
2024-02-26T20:04:35.907Z,1.50
2024-02-26T20:07:05.937Z,1.40
2024-02-26T20:09:38.189Z,1.10
2024-02-26T20:12:05.823Z,1.37
2024-02-26T20:14:33.051Z,1.53
2024-02-26T20:17:00.063Z,1.30
2024-02-26T20:19:27.023Z,1.30
2024-02-26T20:21:54.867Z,1.53
2024-02-26T20:24:21.681Z,1.43
2024-02-26T20:26:51.063Z,1.70
2024-02-26T20:29:18.292Z,1.60
2024-02-26T20:31:49.312Z,1.30
2024-02-26T20:34:17.928Z,1.60
2024-02-26T20:36:44.782Z,1.30
2024-02-26T20:39:11.713Z,1.60
2024-02-26T20:41:38.409Z,1.60
2024-02-26T20:44:06.660Z,1.40
2024-02-26T20:46:35.891Z,1.53
2024-02-26T20:49:04.974Z,1.37
2024-02-26T20:51:31.890Z,1.27
2024-02-26T20:53:59.175Z,1.60
2024-02-26T20:56:25.961Z,1.70
2024-02-26T20:58:55.301Z,1.30
2024-02-26T21:01:22.473Z,1.50
2024-02-26T21:03:51.502Z,1.40
2024-02-26T21:06:23.218Z,1.40
2024-02-26T21:08:53.513Z,1.60
2024-02-26T21:11:22.730Z,1.30
2024-02-26T21:13:51.621Z,1.60
2024-02-26T21:16:20.609Z,1.30
2024-02-26T21:18:47.852Z,1.47
2024-02-26T21:21:15.116Z,1.50
2024-02-26T21:23:44.433Z,1.40
2024-02-26T21:26:14.788Z,1.60
2024-02-26T21:28:45.025Z,1.40
2024-02-26T21:31:13.970Z,1.60
2024-02-26T21:33:40.864Z,1.60
2024-02-26T21:36:10.223Z,1.40
2024-02-26T21:38:43.159Z,1.57
2024-02-26T21:41:18.272Z,1.73
2024-02-26T21:43:51.566Z,1.67
2024-02-26T21:46:21.044Z,1.53
2024-02-26T21:48:51.603Z,1.47
2024-02-26T21:51:18.451Z,1.70
2024-02-26T21:53:48.025Z,1.60
2024-02-26T21:56:18.985Z,2.00
2024-02-26T21:58:48.306Z,1.80
2024-02-26T22:01:17.817Z,1.40
2024-02-26T22:03:47.197Z,1.90
2024-02-26T22:06:16.790Z,1.60
2024-02-26T22:08:43.604Z,1.63
2024-02-26T22:11:10.466Z,1.70
2024-02-26T22:13:37.295Z,1.53
2024-02-26T22:16:06.565Z,1.75
2024-02-26T22:18:33.488Z,1.63
2024-02-26T22:21:04.912Z,1.87
2024-02-26T22:23:32.236Z,1.47
2024-02-26T22:26:01.615Z,1.70
2024-02-26T22:28:30.957Z,1.60
2024-02-26T22:30:57.812Z,2.23
2024-02-26T22:33:25.329Z,1.83
2024-02-26T22:35:52.350Z,2.00
2024-02-26T22:38:21.616Z,2.10
2024-02-26T22:40:50.610Z,1.97
2024-02-26T22:43:17.340Z,2.17
2024-02-26T22:45:45.745Z,2.60
2024-02-26T22:48:12.771Z,2.50
2024-02-26T22:50:39.625Z,2.63
2024-02-26T22:53:08.656Z,1.83
2024-02-26T22:55:38.331Z,2.37
2024-02-26T22:58:05.212Z,2.10
2024-02-26T23:00:32.126Z,2.10
2024-02-26T23:03:00.116Z,2.00
2024-02-26T23:05:31.136Z,1.70
2024-02-26T23:07:58.771Z,1.83
2024-02-26T23:10:25.943Z,1.93
2024-02-26T23:12:55.221Z,2.03
2024-02-26T23:15:24.923Z,1.53
2024-02-26T23:17:55.421Z,2.00
2024-02-26T23:20:23.157Z,1.63
2024-02-26T23:22:52.661Z,2.10
2024-02-26T23:25:21.996Z,1.80
2024-02-26T23:27:49.708Z,1.80
2024-02-26T23:30:19.140Z,1.63
2024-02-26T23:32:48.473Z,1.80
2024-02-26T23:35:19.887Z,1.80
2024-02-26T23:37:46.680Z,1.43
2024-02-26T23:40:13.506Z,1.43
2024-02-26T23:42:40.334Z,2.27
2024-02-26T23:45:08.655Z,1.90
2024-02-26T23:47:35.734Z,1.43
2024-02-26T23:50:03.373Z,1.60
2024-02-26T23:52:30.194Z,1.80
2024-02-26T23:55:01.472Z,1.70
2024-02-26T23:57:28.255Z,1.70
2024-02-26T23:59:55.434Z,1.67
